Time;durP1;ratioP1;P1;durP2;ratioP2;P2;SDS_P1;SDS_P2;PMS_P1;PMS_P2;Temp;Humidity;BMP_temperature;BMP_pressure;BME280_temperature;BME280_humidity;BME280_pressure;Samples;Min_cycle;Max_cycle;Signal;HPM_P1;HPM_P2
2023/07/31 00:01:12;;;;;;;4.32;2.10;;;20.20;99.90;;;;;;4956000;28;20278;-65
2023/07/31 00:03:42;;;;;;;4.47;2.17;;;20.20;99.90;;;;;;4956662;29;20176;-65
2023/07/31 00:06:07;;;;;;;2.83;1.90;;;20.20;99.90;;;;;;4956254;29;20196;-64
2023/07/31 00:08:33;;;;;;;3.35;1.90;;;20.20;99.90;;;;;;4963551;28;20199;-64
2023/07/31 00:10:59;;;;;;;3.60;2.33;;;20.20;99.90;;;;;;4975165;28;20203;-65
2023/07/31 00:13:26;;;;;;;3.38;2.15;;;20.20;99.90;;;;;;4975914;28;20180;-64
2023/07/31 00:15:54;;;;;;;2.88;2.10;;;20.20;99.90;;;;;;4975355;28;20231;-64
2023/07/31 00:18:22;;;;;;;3.03;1.88;;;20.20;99.90;;;;;;4975305;28;20176;-64
2023/07/31 00:20:48;;;;;;;3.15;2.03;;;20.20;99.90;;;;;;4975616;28;20176;-65
2023/07/31 00:23:15;;;;;;;2.80;1.95;;;20.20;99.90;;;;;;4974702;28;20214;-64
2023/07/31 00:25:42;;;;;;;3.47;1.90;;;20.20;99.90;;;;;;4976384;28;20191;-64
2023/07/31 00:28:07;;;;;;;4.80;2.28;;;20.30;99.90;;;;;;4975411;28;20200;-65
2023/07/31 00:30:33;;;;;;;3.78;2.20;;;20.30;99.90;;;;;;4975532;28;20182;-65
2023/07/31 00:33:03;;;;;;;3.38;1.85;;;20.30;99.90;;;;;;4975460;28;20192;-64
2023/07/31 00:35:34;;;;;;;2.83;1.75;;;20.30;99.90;;;;;;4975715;28;20164;-65
2023/07/31 00:38:01;;;;;;;3.50;1.95;;;20.20;99.90;;;;;;4975456;28;20207;-66
2023/07/31 00:40:27;;;;;;;3.53;1.80;;;20.30;99.90;;;;;;4975112;28;20180;-64
2023/07/31 00:42:53;;;;;;;2.92;1.70;;;20.30;99.90;;;;;;4975099;28;20204;-65
2023/07/31 00:45:22;;;;;;;2.80;1.92;;;20.30;99.90;;;;;;4975490;28;20223;-65
2023/07/31 00:47:50;;;;;;;4.03;1.70;;;20.30;99.90;;;;;;5011967;22;20223;-65
2023/07/31 00:50:16;;;;;;;4.57;1.90;;;20.30;99.90;;;;;;4975440;28;20161;-66
2023/07/31 00:52:42;;;;;;;2.97;1.58;;;20.30;99.90;;;;;;4975445;28;20184;-65
2023/07/31 00:55:10;;;;;;;3.58;1.50;;;20.30;99.90;;;;;;4975067;28;20176;-64
2023/07/31 00:57:38;;;;;;;2.13;1.63;;;20.30;99.90;;;;;;4974778;28;20179;-65
2023/07/31 01:00:04;;;;;;;2.75;1.50;;;20.30;99.90;;;;;;4975018;28;20172;-65
2023/07/31 01:02:29;;;;;;;3.00;1.80;;;20.30;99.90;;;;;;4975212;28;20176;-65
2023/07/31 01:04:58;;;;;;;2.15;1.42;;;20.30;99.90;;;;;;4974738;28;20200;-65
2023/07/31 01:07:49;;;;;;;2.45;1.63;;;20.30;99.90;;;;;;4959532;28;20172;-65
2023/07/31 01:10:23;;;;;;;3.10;1.40;;;20.30;99.90;;;;;;4972030;28;20247;-65
2023/07/31 01:12:53;;;;;;;2.40;1.50;;;20.20;99.90;;;;;;4975141;28;21627;-65
2023/07/31 01:15:19;;;;;;;3.10;1.70;;;20.20;99.90;;;;;;4994810;28;20200;-65
2023/07/31 01:17:45;;;;;;;2.92;1.40;;;20.30;99.90;;;;;;4994937;28;20183;-65
2023/07/31 01:20:14;;;;;;;2.70;1.40;;;20.20;99.90;;;;;;4994710;28;20207;-65
2023/07/31 01:23:18;;;;;;;3.05;1.60;;;20.20;99.90;;;;;;4995112;28;20263;-65
2023/07/31 01:25:46;;;;;;;4.15;1.30;;;20.20;99.90;;;;;;4975579;28;20201;-65
2023/07/31 01:28:21;;;;;;;2.70;1.35;;;20.20;99.90;;;;;;4975537;28;20207;-65
2023/07/31 01:30:50;;;;;;;3.60;1.77;;;20.20;99.90;;;;;;4974925;28;20203;-65
2023/07/31 01:33:16;;;;;;;2.35;1.58;;;20.10;99.90;;;;;;4975228;28;20177;-65
2023/07/31 01:35:44;;;;;;;1.58;1.30;;;20.10;99.90;;;;;;4975061;28;20196;-65
2023/07/31 01:38:10;;;;;;;2.33;1.42;;;20.00;99.90;;;;;;4975118;28;20177;-65
2023/07/31 01:40:42;;;;;;;3.17;1.60;;;19.90;99.90;;;;;;4974853;28;20211;-64
2023/07/31 01:43:07;;;;;;;2.60;1.48;;;19.80;99.90;;;;;;4987061;28;20189;-65
2023/07/31 01:45:33;;;;;;;2.95;1.67;;;19.70;99.90;;;;;;4978959;28;20212;-65
2023/07/31 01:48:01;;;;;;;4.53;1.63;;;19.60;99.90;;;;;;4978612;28;20212;-66
2023/07/31 01:50:29;;;;;;;1.98;1.40;;;19.60;99.90;;;;;;4977914;28;20191;-65
2023/07/31 01:52:55;;;;;;;2.40;1.70;;;19.50;99.90;;;;;;4978041;28;20199;-65
2023/07/31 01:55:20;;;;;;;2.25;1.60;;;19.40;99.90;;;;;;4977673;28;20172;-65
2023/07/31 01:57:46;;;;;;;2.80;1.70;;;19.40;99.90;;;;;;4974558;28;20188;-66
2023/07/31 02:00:14;;;;;;;2.28;1.42;;;19.40;99.90;;;;;;4959228;28;20189;-66
2023/07/31 02:02:40;;;;;;;3.40;1.70;;;19.30;99.90;;;;;;4974696;28;20204;-65
2023/07/31 02:05:06;;;;;;;1.98;1.45;;;19.30;99.90;;;;;;4993808;28;20172;-65
2023/07/31 02:07:31;;;;;;;2.42;1.70;;;19.30;99.90;;;;;;4996992;28;20210;-66
2023/07/31 02:09:57;;;;;;;2.60;1.60;;;19.30;99.90;;;;;;4997221;28;20175;-65
2023/07/31 02:12:23;;;;;;;3.03;1.73;;;19.30;99.90;;;;;;4981693;28;20197;-65
2023/07/31 02:14:48;;;;;;;3.22;1.60;;;19.30;99.90;;;;;;4977717;28;20180;-65
2023/07/31 02:17:14;;;;;;;3.45;1.90;;;19.40;99.90;;;;;;4977173;28;20203;-64
2023/07/31 02:19:40;;;;;;;2.95;1.50;;;19.40;99.90;;;;;;4977519;28;20180;-65
2023/07/31 02:22:10;;;;;;;2.67;1.92;;;19.40;99.90;;;;;;4977252;28;20200;-66
2023/07/31 02:24:38;;;;;;;3.58;1.95;;;19.40;99.90;;;;;;4976957;28;20182;-65
2023/07/31 02:27:04;;;;;;;3.05;1.80;;;19.40;99.90;;;;;;4977277;28;20183;-66
2023/07/31 02:29:32;;;;;;;2.30;1.83;;;19.40;99.90;;;;;;4969131;28;20200;-66
2023/07/31 02:32:00;;;;;;;2.88;1.80;;;19.40;99.90;;;;;;4977301;28;20204;-66
2023/07/31 02:34:28;;;;;;;3.10;1.80;;;19.50;99.90;;;;;;4977400;28;20176;-66
2023/07/31 02:36:55;;;;;;;4.38;2.22;;;19.50;99.90;;;;;;4977363;28;20223;-66
2023/07/31 02:39:21;;;;;;;3.10;2.17;;;19.50;99.90;;;;;;4977225;28;20436;-66
2023/07/31 02:41:47;;;;;;;2.25;1.83;;;19.50;99.90;;;;;;4977350;28;20207;-65
2023/07/31 02:44:14;;;;;;;3.33;1.63;;;19.60;99.90;;;;;;4957845;28;20267;-65
2023/07/31 02:46:42;;;;;;;3.58;2.05;;;19.60;99.90;;;;;;4972677;28;20180;-65
2023/07/31 02:49:07;;;;;;;3.63;1.90;;;19.60;99.90;;;;;;4973481;28;20212;-66
2023/07/31 02:51:33;;;;;;;3.75;2.00;;;19.60;99.90;;;;;;4973754;28;20176;-65
2023/07/31 02:54:01;;;;;;;3.90;2.28;;;19.60;99.90;;;;;;4976516;28;20192;-65
2023/07/31 02:56:26;;;;;;;3.47;2.10;;;19.70;99.90;;;;;;4976643;28;20171;-65
2023/07/31 02:58:52;;;;;;;3.85;1.95;;;19.70;99.90;;;;;;4976517;28;20196;-66
2023/07/31 03:01:20;;;;;;;2.13;1.60;;;19.70;99.90;;;;;;4976360;28;20183;-65
2023/07/31 03:03:45;;;;;;;4.30;1.95;;;19.70;99.90;;;;;;4976707;28;20180;-63
2023/07/31 03:06:11;;;;;;;3.60;2.08;;;19.70;99.90;;;;;;4976485;28;20207;-64
2023/07/31 03:08:39;;;;;;;4.00;2.17;;;19.70;99.90;;;;;;4976748;28;20450;-64
2023/07/31 03:11:04;;;;;;;4.15;2.10;;;19.80;99.90;;;;;;4976602;28;20172;-65
2023/07/31 03:13:35;;;;;;;2.90;1.92;;;19.80;99.90;;;;;;4976686;28;20187;-64
2023/07/31 03:16:00;;;;;;;3.65;2.03;;;19.80;99.90;;;;;;4976469;28;20168;-64
2023/07/31 03:18:28;;;;;;;3.92;2.15;;;19.80;99.90;;;;;;4975954;28;20191;-65
2023/07/31 03:20:53;;;;;;;3.42;1.88;;;19.80;99.90;;;;;;4976439;28;20212;-65
2023/07/31 03:23:21;;;;;;;3.42;2.10;;;19.90;99.90;;;;;;4976348;28;20191;-64
2023/07/31 03:26:01;;;;;;;3.28;1.83;;;19.90;99.90;;;;;;4976260;28;20196;-64
2023/07/31 03:28:27;;;;;;;4.78;2.47;;;19.90;99.90;;;;;;4975847;28;20196;-65
2023/07/31 03:30:53;;;;;;;3.20;1.98;;;19.90;99.90;;;;;;4975957;28;20214;-64
2023/07/31 03:33:18;;;;;;;2.90;1.90;;;19.90;99.90;;;;;;4975883;28;20176;-65
2023/07/31 03:35:44;;;;;;;3.00;1.95;;;19.90;99.90;;;;;;4975126;28;20601;-65
2023/07/31 03:38:10;;;;;;;3.63;1.98;;;20.00;99.90;;;;;;4976118;28;20172;-65
2023/07/31 03:40:36;;;;;;;3.63;1.92;;;20.00;99.90;;;;;;4975733;28;20175;-64
2023/07/31 03:43:03;;;;;;;2.75;1.77;;;20.00;99.90;;;;;;4976141;28;20179;-64
2023/07/31 03:45:29;;;;;;;3.13;2.00;;;20.00;99.90;;;;;;4975688;28;20194;-65
2023/07/31 03:47:55;;;;;;;2.10;1.80;;;20.00;99.90;;;;;;4975799;28;20207;-65
2023/07/31 03:50:24;;;;;;;3.75;2.00;;;20.00;99.90;;;;;;4975898;28;20176;-65
2023/07/31 03:52:53;;;;;;;3.38;1.98;;;20.00;99.90;;;;;;4957180;28;20200;-65
2023/07/31 03:55:19;;;;;;;3.80;1.98;;;20.00;99.90;;;;;;4956742;28;20173;-64
2023/07/31 03:57:44;;;;;;;2.88;1.80;;;20.00;99.90;;;;;;4956282;28;20304;-64
2023/07/31 04:00:11;;;;;;;4.38;2.00;;;20.00;99.90;;;;;;4975045;28;20355;-64
2023/07/31 04:02:36;;;;;;;2.90;1.90;;;20.00;99.90;;;;;;4975762;28;20200;-65
2023/07/31 04:05:04;;;;;;;3.53;2.40;;;20.00;99.90;;;;;;4975713;28;20176;-64
2023/07/31 04:07:30;;;;;;;2.88;1.95;;;20.00;99.90;;;;;;4975186;28;20196;-64
2023/07/31 04:09:57;;;;;;;5.07;2.10;;;20.10;99.90;;;;;;4975154;28;20190;-64
2023/07/31 04:12:22;;;;;;;4.05;2.05;;;20.10;99.90;;;;;;4975578;28;20202;-64
2023/07/31 04:14:48;;;;;;;3.17;2.00;;;20.10;99.90;;;;;;4975700;28;20157;-65
2023/07/31 04:17:13;;;;;;;3.60;2.10;;;20.00;99.90;;;;;;4975426;28;20183;-65
2023/07/31 04:19:39;;;;;;;5.75;2.30;;;20.10;99.90;;;;;;4975601;28;20417;-65
2023/07/31 04:22:05;;;;;;;3.20;1.88;;;20.10;99.90;;;;;;4975524;28;20203;-64
2023/07/31 04:24:30;;;;;;;4.13;2.17;;;20.10;99.90;;;;;;4975137;28;20258;-65
2023/07/31 04:26:58;;;;;;;2.95;1.95;;;20.10;99.90;;;;;;4975108;28;20258;-64
2023/07/31 04:29:31;;;;;;;3.88;1.92;;;20.10;99.90;;;;;;4975463;28;20215;-64
2023/07/31 04:32:01;;;;;;;4.18;1.83;;;20.10;99.90;;;;;;4975401;28;20183;-65
2023/07/31 04:34:29;;;;;;;2.75;2.00;;;20.10;99.90;;;;;;4991703;28;20286;-65
2023/07/31 04:36:59;;;;;;;2.63;1.85;;;20.10;99.90;;;;;;4975575;28;20179;-65
2023/07/31 04:39:27;;;;;;;3.05;1.98;;;20.10;99.90;;;;;;4975138;28;20215;-66
2023/07/31 04:41:53;;;;;;;3.72;2.00;;;20.10;99.90;;;;;;4975048;28;20187;-63
2023/07/31 04:44:20;;;;;;;3.50;1.95;;;20.20;99.90;;;;;;4975073;28;20192;-63
2023/07/31 04:46:46;;;;;;;3.53;2.08;;;20.20;99.90;;;;;;4975823;28;20288;-64
2023/07/31 04:49:12;;;;;;;4.07;2.05;;;20.20;99.90;;;;;;4979032;28;20281;-64
2023/07/31 04:51:37;;;;;;;2.60;2.08;;;20.20;99.90;;;;;;4979110;28;20186;-64
2023/07/31 04:54:03;;;;;;;3.10;1.92;;;20.20;99.90;;;;;;4978989;28;20179;-64
2023/07/31 04:56:29;;;;;;;5.60;2.10;;;20.20;99.90;;;;;;4979377;28;20175;-64
2023/07/31 04:58:59;;;;;;;3.42;2.10;;;20.20;99.90;;;;;;4979019;28;20185;-64
2023/07/31 05:01:25;;;;;;;2.80;1.90;;;20.30;99.90;;;;;;4975150;28;20185;-65
2023/07/31 05:03:53;;;;;;;3.55;2.00;;;20.30;99.90;;;;;;4959561;28;20241;-64
2023/07/31 05:06:20;;;;;;;6.25;2.10;;;20.40;99.90;;;;;;4959181;28;20176;-64
2023/07/31 05:08:46;;;;;;;2.95;2.17;;;20.30;99.90;;;;;;4959296;28;20227;-64
2023/07/31 05:11:16;;;;;;;2.63;1.90;;;20.40;99.90;;;;;;4959345;28;20239;-64
2023/07/31 05:13:43;;;;;;;2.72;1.95;;;20.40;99.90;;;;;;4959244;28;20172;-64
2023/07/31 05:16:11;;;;;;;2.47;1.92;;;20.50;99.90;;;;;;4977902;28;20223;-64
2023/07/31 05:18:37;;;;;;;3.75;1.75;;;20.50;99.90;;;;;;4978731;28;20176;-65
2023/07/31 05:21:03;;;;;;;2.42;1.90;;;20.50;99.90;;;;;;4978624;28;20295;-65
2023/07/31 05:23:29;;;;;;;3.75;2.30;;;20.50;99.90;;;;;;4978482;28;20186;-65
2023/07/31 05:25:56;;;;;;;3.80;1.90;;;20.50;99.90;;;;;;4978399;28;20203;-66
2023/07/31 05:28:22;;;;;;;4.57;2.42;;;20.60;99.90;;;;;;4978414;28;20199;-65
2023/07/31 05:30:48;;;;;;;2.80;2.08;;;20.60;99.90;;;;;;4978290;28;20176;-65
2023/07/31 05:33:16;;;;;;;3.08;2.13;;;20.60;99.90;;;;;;4977773;28;20191;-65
2023/07/31 05:35:42;;;;;;;3.10;2.10;;;20.70;99.90;;;;;;4978308;28;20172;-65
2023/07/31 05:38:12;;;;;;;2.92;2.17;;;20.70;99.90;;;;;;4978248;28;20262;-64
2023/07/31 05:40:40;;;;;;;2.47;1.70;;;20.70;99.90;;;;;;4978155;28;20191;-65
2023/07/31 05:43:08;;;;;;;2.97;1.92;;;20.80;99.90;;;;;;4978046;28;20262;-64
2023/07/31 05:45:33;;;;;;;2.75;1.98;;;20.80;99.90;;;;;;4978135;28;20191;-66
2023/07/31 05:48:01;;;;;;;3.03;2.17;;;20.80;99.90;;;;;;4977186;28;20211;-63
2023/07/31 05:50:30;;;;;;;4.18;2.13;;;20.80;99.90;;;;;;4977879;28;20172;-65
2023/07/31 05:52:55;;;;;;;4.60;2.10;;;20.80;99.90;;;;;;4978523;28;20188;-64
2023/07/31 05:55:21;;;;;;;4.00;1.98;;;20.80;99.90;;;;;;4977930;28;20176;-64
2023/07/31 05:57:49;;;;;;;2.70;1.90;;;20.80;99.90;;;;;;4977921;28;20196;-65
2023/07/31 06:00:17;;;;;;;3.67;2.00;;;20.80;99.90;;;;;;4977298;28;20177;-65
2023/07/31 06:02:45;;;;;;;2.75;1.70;;;20.80;99.90;;;;;;4977731;28;20208;-65
2023/07/31 06:05:10;;;;;;;4.07;2.08;;;20.80;99.90;;;;;;4979146;28;20176;-65
2023/07/31 06:07:36;;;;;;;4.65;2.35;;;20.80;99.90;;;;;;4978518;28;20212;-65
2023/07/31 06:10:05;;;;;;;2.88;1.80;;;20.80;99.90;;;;;;4974152;28;20215;-65
2023/07/31 06:12:35;;;;;;;3.65;1.83;;;20.80;99.90;;;;;;4973984;28;20176;-65
2023/07/31 06:15:01;;;;;;;3.05;2.13;;;20.80;99.90;;;;;;4974324;28;20173;-65
2023/07/31 06:17:29;;;;;;;2.60;1.80;;;20.80;99.90;;;;;;4974140;28;20173;-65
2023/07/31 06:19:57;;;;;;;3.03;1.92;;;20.80;99.90;;;;;;4974275;28;20180;-65
2023/07/31 06:22:23;;;;;;;4.30;2.15;;;20.70;99.90;;;;;;4974389;28;20188;-65
2023/07/31 06:24:49;;;;;;;3.22;1.80;;;20.70;99.90;;;;;;4974158;28;20181;-65
2023/07/31 06:27:16;;;;;;;2.53;2.00;;;20.60;99.90;;;;;;4974132;28;20240;-64
2023/07/31 06:29:42;;;;;;;3.55;1.98;;;20.60;99.90;;;;;;4974162;28;20278;-65
2023/07/31 06:32:10;;;;;;;4.15;2.20;;;20.50;99.90;;;;;;4974112;28;20267;-65
2023/07/31 06:34:36;;;;;;;2.90;2.03;;;20.40;99.90;;;;;;4973608;28;20200;-65
2023/07/31 06:37:02;;;;;;;3.30;2.13;;;20.30;99.90;;;;;;4974128;28;20183;-66
2023/07/31 06:39:29;;;;;;;4.03;2.10;;;20.30;99.90;;;;;;4983753;28;20295;-65
2023/07/31 06:41:55;;;;;;;2.95;1.83;;;20.20;99.90;;;;;;4976786;28;20176;-66
2023/07/31 06:44:23;;;;;;;3.60;1.95;;;20.10;99.90;;;;;;4977133;28;20294;-65
2023/07/31 06:46:48;;;;;;;3.20;2.00;;;20.10;99.90;;;;;;4977408;28;20204;-66
2023/07/31 06:49:16;;;;;;;3.28;2.05;;;20.10;99.90;;;;;;4976553;28;20254;-65
2023/07/31 06:51:42;;;;;;;3.92;2.00;;;20.10;99.90;;;;;;4976667;28;20168;-66
2023/07/31 06:54:11;;;;;;;3.63;2.72;;;20.10;99.90;;;;;;4976924;28;20230;-66
2023/07/31 06:56:36;;;;;;;2.88;2.33;;;20.10;99.90;;;;;;4976953;28;20214;-66
2023/07/31 06:59:04;;;;;;;3.03;2.33;;;20.10;99.90;;;;;;4976447;28;20212;-65
2023/07/31 07:01:30;;;;;;;3.15;2.08;;;20.20;99.90;;;;;;4976796;28;20211;-66
2023/07/31 07:03:58;;;;;;;2.58;2.00;;;20.20;99.90;;;;;;4976807;28;20172;-66
2023/07/31 07:06:26;;;;;;;3.08;2.03;;;20.20;99.90;;;;;;4976567;28;20207;-66
2023/07/31 07:08:53;;;;;;;2.25;1.77;;;20.30;99.90;;;;;;4976514;28;20208;-66
2023/07/31 07:11:22;;;;;;;4.20;2.65;;;20.30;99.90;;;;;;4976485;28;20199;-65
2023/07/31 07:13:52;;;;;;;4.15;2.60;;;20.30;99.90;;;;;;4976097;28;20179;-65
2023/07/31 07:16:17;;;;;;;3.83;2.22;;;20.40;99.90;;;;;;4975676;28;20335;-65
2023/07/31 07:18:43;;;;;;;3.28;2.30;;;20.50;99.90;;;;;;4976272;28;20313;-65
2023/07/31 07:21:09;;;;;;;5.60;2.40;;;20.60;99.90;;;;;;4976216;28;20350;-65
2023/07/31 07:23:34;;;;;;;2.45;1.95;;;20.60;99.90;;;;;;4976395;28;20199;-66
2023/07/31 07:26:00;;;;;;;2.85;2.20;;;20.70;99.90;;;;;;4976330;28;20235;-65
2023/07/31 07:28:25;;;;;;;3.83;2.40;;;20.80;99.90;;;;;;4976290;28;20196;-66
2023/07/31 07:30:55;;;;;;;4.18;2.33;;;20.80;99.90;;;;;;4979954;28;20175;-65
2023/07/31 07:33:20;;;;;;;4.32;2.90;;;20.90;99.90;;;;;;4995598;28;20182;-66
2023/07/31 07:35:46;;;;;;;3.25;2.38;;;20.90;99.90;;;;;;4984695;28;20176;-65
2023/07/31 07:38:13;;;;;;;3.50;2.40;;;20.90;99.90;;;;;;4976082;28;20206;-64
2023/07/31 07:40:40;;;;;;;4.20;2.67;;;21.00;99.90;;;;;;4976029;28;20259;-65
2023/07/31 07:43:10;;;;;;;3.67;2.30;;;20.90;99.90;;;;;;4976068;28;20254;-65
2023/07/31 07:45:38;;;;;;;4.78;2.60;;;21.00;99.90;;;;;;4975912;28;20176;-65
2023/07/31 07:48:06;;;;;;;3.45;2.38;;;20.90;99.90;;;;;;4972044;28;20247;-64
2023/07/31 07:50:34;;;;;;;3.72;2.40;;;20.80;99.90;;;;;;4956140;28;20173;-64
2023/07/31 07:53:00;;;;;;;3.97;2.40;;;20.70;99.90;;;;;;4956411;29;20226;-66
2023/07/31 07:55:28;;;;;;;4.25;2.75;;;20.60;99.90;;;;;;4956197;29;20183;-66
2023/07/31 07:57:56;;;;;;;3.70;2.47;;;20.40;99.90;;;;;;4956283;28;20200;-65
2023/07/31 08:00:24;;;;;;;3.88;2.58;;;20.30;99.90;;;;;;4956394;29;20252;-65
2023/07/31 08:02:49;;;;;;;4.15;2.47;;;20.10;99.90;;;;;;4956234;29;20177;-65
2023/07/31 08:05:17;;;;;;;5.38;2.25;;;20.00;99.90;;;;;;4964652;28;20191;-65
2023/07/31 08:07:42;;;;;;;5.60;2.50;;;19.90;99.90;;;;;;4972112;28;20177;-65
2023/07/31 08:10:13;;;;;;;2.92;2.22;;;19.80;99.90;;;;;;4972222;28;20192;-64
2023/07/31 08:12:41;;;;;;;3.72;2.17;;;19.80;99.90;;;;;;4972479;28;20255;-66
2023/07/31 08:15:11;;;;;;;3.03;2.22;;;19.70;99.90;;;;;;4972283;28;20211;-64
2023/07/31 08:17:36;;;;;;;3.20;2.28;;;19.70;99.90;;;;;;4972500;28;20263;-64
2023/07/31 08:20:07;;;;;;;3.63;2.17;;;19.70;99.90;;;;;;4972021;28;20264;-65
2023/07/31 08:22:33;;;;;;;2.92;2.20;;;19.70;99.90;;;;;;4971632;28;20283;-65
2023/07/31 08:25:01;;;;;;;3.58;2.45;;;19.70;99.90;;;;;;4972256;28;20287;-65
2023/07/31 08:27:27;;;;;;;3.67;1.88;;;19.80;99.90;;;;;;4957125;28;20439;-66
2023/07/31 08:29:53;;;;;;;4.20;2.28;;;19.80;99.90;;;;;;4972232;28;20235;-66
2023/07/31 08:32:18;;;;;;;4.00;2.50;;;19.80;99.90;;;;;;4972252;28;20419;-66
2023/07/31 08:34:44;;;;;;;2.97;2.35;;;19.80;99.90;;;;;;4972205;28;20201;-66
2023/07/31 08:37:11;;;;;;;3.22;2.13;;;19.90;99.90;;;;;;4972089;28;20276;-66
2023/07/31 08:39:39;;;;;;;2.33;1.77;;;19.90;99.90;;;;;;4955621;28;20204;-66
2023/07/31 08:42:09;;;;;;;3.28;1.95;;;19.90;99.90;;;;;;4955885;28;20219;-66
2023/07/31 08:44:35;;;;;;;3.45;2.10;;;19.90;99.90;;;;;;4956033;29;20204;-66
2023/07/31 08:47:01;;;;;;;2.47;1.98;;;19.90;99.90;;;;;;4955883;29;20181;-66
2023/07/31 08:49:29;;;;;;;4.28;1.98;;;19.90;99.90;;;;;;4955619;28;20204;-66
2023/07/31 08:51:57;;;;;;;4.63;2.05;;;20.00;99.90;;;;;;4959544;28;20188;-65
2023/07/31 08:54:23;;;;;;;3.97;2.35;;;20.00;99.90;;;;;;4971962;28;20263;-66
2023/07/31 08:56:50;;;;;;;3.03;2.08;;;20.00;99.90;;;;;;4972113;28;20239;-66
2023/07/31 08:59:18;;;;;;;3.97;2.30;;;20.00;99.90;;;;;;4974810;28;20176;-67
2023/07/31 09:01:49;;;;;;;3.20;1.90;;;20.00;99.90;;;;;;4975240;28;20203;-66
2023/07/31 09:04:18;;;;;;;3.55;2.00;;;20.00;99.90;;;;;;4975099;28;20168;-66
2023/07/31 09:06:44;;;;;;;6.47;2.40;;;20.10;99.90;;;;;;4974806;28;20203;-65
2023/07/31 09:09:12;;;;;;;3.13;2.10;;;20.00;99.90;;;;;;4974313;28;20203;-66
2023/07/31 09:11:40;;;;;;;3.38;1.88;;;20.10;99.90;;;;;;4975757;28;20199;-66
2023/07/31 09:14:09;;;;;;;3.00;2.08;;;20.10;99.90;;;;;;4975244;28;20191;-66
2023/07/31 09:16:37;;;;;;;2.90;2.00;;;20.10;99.90;;;;;;4974976;28;20168;-65
2023/07/31 09:19:07;;;;;;;3.05;2.05;;;20.10;99.90;;;;;;4974917;28;20176;-65
2023/07/31 09:21:33;;;;;;;3.28;1.88;;;20.10;99.90;;;;;;4974681;28;20187;-66
2023/07/31 09:23:58;;;;;;;3.60;2.03;;;20.20;99.90;;;;;;4975040;28;20180;-66
2023/07/31 09:26:38;;;;;;;3.92;2.30;;;20.20;99.90;;;;;;4974365;28;20377;-65
2023/07/31 09:29:07;;;;;;;3.30;2.08;;;20.20;99.90;;;;;;4957744;28;20208;-66
2023/07/31 09:31:39;;;;;;;3.72;2.28;;;20.20;99.90;;;;;;4955508;29;20300;-66
2023/07/31 09:34:07;;;;;;;4.75;2.10;;;20.20;99.90;;;;;;4972567;28;20165;-66
2023/07/31 09:36:34;;;;;;;3.38;2.20;;;20.30;99.90;;;;;;4959099;28;20184;-66
2023/07/31 09:39:03;;;;;;;3.92;2.28;;;20.30;99.90;;;;;;4959022;29;20420;-68
2023/07/31 09:41:38;;;;;;;3.33;2.13;;;20.30;99.90;;;;;;4958188;28;20176;-68
2023/07/31 09:44:04;;;;;;;2.70;1.92;;;20.30;99.90;;;;;;4974937;28;20258;-67
2023/07/31 09:46:34;;;;;;;2.97;1.83;;;20.30;99.90;;;;;;4974965;28;20176;-67
2023/07/31 09:49:18;;;;;;;4.22;2.17;;;20.40;99.90;;;;;;4974587;28;20216;-66
2023/07/31 09:51:46;;;;;;;3.13;1.90;;;20.40;99.90;;;;;;4974784;28;20175;-66
2023/07/31 09:54:15;;;;;;;2.45;1.67;;;20.40;99.90;;;;;;4975631;28;20270;-66
2023/07/31 09:56:48;;;;;;;2.33;1.70;;;20.50;99.90;;;;;;4974777;28;20203;-66
2023/07/31 09:59:16;;;;;;;4.35;1.70;;;20.50;99.90;;;;;;4985398;28;20204;-65
2023/07/31 10:01:45;;;;;;;2.50;1.70;;;20.50;99.90;;;;;;4977862;28;20239;-65
2023/07/31 10:04:15;;;;;;;2.60;1.50;;;20.60;99.90;;;;;;4978011;28;20234;-65
2023/07/31 10:06:46;;;;;;;2.38;1.70;;;20.70;99.90;;;;;;4977754;28;20176;-65
2023/07/31 10:09:20;;;;;;;1.98;1.60;;;20.70;99.90;;;;;;4977374;28;20225;-66
2023/07/31 10:11:55;;;;;;;2.95;1.73;;;20.80;99.90;;;;;;4977207;28;20190;-64
2023/07/31 10:14:23;;;;;;;2.08;1.60;;;21.00;99.90;;;;;;4977363;28;20254;-65
2023/07/31 10:16:50;;;;;;;2.45;1.40;;;21.10;99.90;;;;;;4978849;28;20259;-65
2023/07/31 10:19:17;;;;;;;2.28;1.42;;;21.30;99.90;;;;;;4996733;28;20179;-65
2023/07/31 10:21:43;;;;;;;3.67;1.60;;;21.40;99.90;;;;;;4996884;28;20186;-66
2023/07/31 10:24:09;;;;;;;2.22;1.50;;;21.50;99.90;;;;;;4996734;28;20192;-66
2023/07/31 10:26:37;;;;;;;2.22;1.67;;;21.60;99.90;;;;;;4996652;28;20210;-66
2023/07/31 10:29:04;;;;;;;2.97;1.63;;;21.70;99.90;;;;;;4996706;28;20234;-64
2023/07/31 10:31:32;;;;;;;2.40;1.67;;;21.90;99.90;;;;;;4996626;28;20294;-66
2023/07/31 10:33:59;;;;;;;2.72;2.05;;;22.00;99.90;;;;;;4983779;28;20235;-66
2023/07/31 10:36:26;;;;;;;3.17;1.73;;;22.10;99.90;;;;;;4976917;28;20200;-65
2023/07/31 10:38:52;;;;;;;2.38;1.73;;;22.20;99.90;;;;;;4977425;28;20172;-65
2023/07/31 10:41:29;;;;;;;2.40;1.80;;;22.30;99.90;;;;;;4977210;28;20204;-66
2023/07/31 10:43:58;;;;;;;3.97;2.00;;;22.50;99.90;;;;;;4982968;28;20181;-67
2023/07/31 10:46:25;;;;;;;2.70;1.40;;;22.60;99.90;;;;;;4976466;28;20258;-66
2023/07/31 10:48:59;;;;;;;2.78;1.60;;;22.70;99.90;;;;;;4976977;28;20323;-64
2023/07/31 10:51:33;;;;;;;3.67;1.45;;;22.80;99.90;;;;;;4973101;28;20224;-65
2023/07/31 10:54:22;;;;;;;2.40;1.42;;;22.90;99.90;;;;;;4973493;28;20337;-65
2023/07/31 10:56:52;;;;;;;1.98;1.40;;;23.00;99.90;;;;;;4973587;28;20208;-65
2023/07/31 10:59:19;;;;;;;3.50;1.55;;;23.00;99.90;;;;;;4973371;28;20176;-65
2023/07/31 11:02:05;;;;;;;2.45;1.40;;;23.00;99.90;;;;;;4973041;28;20268;-65
2023/07/31 11:04:35;;;;;;;4.40;1.50;;;23.10;99.90;;;;;;4973543;28;20172;-65
2023/07/31 11:07:03;;;;;;;2.88;1.45;;;23.00;99.90;;;;;;4973502;28;20258;-64
2023/07/31 11:09:33;;;;;;;3.10;1.27;;;23.10;99.90;;;;;;4976240;28;20334;-66
2023/07/31 11:12:02;;;;;;;2.88;1.45;;;23.00;99.90;;;;;;4976715;28;20199;-65
2023/07/31 11:14:29;;;;;;;1.90;1.30;;;23.00;99.90;;;;;;4976434;28;20172;-65
2023/07/31 11:16:55;;;;;;;1.50;1.10;;;23.00;99.90;;;;;;4977123;28;20168;-65
2023/07/31 11:19:26;;;;;;;1.90;1.17;;;23.10;99.90;;;;;;4976362;28;20270;-64
2023/07/31 11:21:55;;;;;;;2.72;1.20;;;23.00;99.90;;;;;;4975981;28;20180;-66
2023/07/31 11:24:21;;;;;;;1.48;1.20;;;23.00;99.90;;;;;;4976063;28;20196;-65
2023/07/31 11:26:53;;;;;;;2.22;1.08;;;23.00;99.90;;;;;;4975571;28;20246;-64
2023/07/31 11:29:19;;;;;;;1.38;0.90;;;23.00;99.90;;;;;;4976043;28;20226;-66
2023/07/31 11:31:49;;;;;;;1.85;1.20;;;22.90;99.90;;;;;;4976238;28;20227;-66
2023/07/31 11:34:20;;;;;;;1.42;1.20;;;22.90;99.90;;;;;;4975749;28;20211;-65
2023/07/31 11:36:58;;;;;;;2.28;1.10;;;22.90;99.90;;;;;;4976033;28;20179;-65
2023/07/31 11:39:24;;;;;;;1.60;1.10;;;22.70;99.90;;;;;;4975724;28;20274;-65
2023/07/31 11:41:52;;;;;;;1.50;0.85;;;22.50;99.90;;;;;;4972605;28;20173;-63
2023/07/31 11:44:19;;;;;;;1.95;0.95;;;22.20;99.90;;;;;;4956269;28;20201;-63
2023/07/31 11:46:45;;;;;;;0.65;0.65;;;22.00;99.90;;;;;;4956580;28;20256;-64
2023/07/31 11:49:11;;;;;;;1.35;0.90;;;21.80;99.90;;;;;;4956477;28;20583;-66
2023/07/31 11:51:39;;;;;;;1.45;1.00;;;21.70;99.90;;;;;;4956726;28;20172;-66
2023/07/31 11:54:06;;;;;;;1.38;0.85;;;21.70;99.90;;;;;;4956623;28;20244;-64
2023/07/31 11:56:32;;;;;;;2.03;1.00;;;21.70;99.90;;;;;;4955700;28;20260;-67
2023/07/31 11:59:00;;;;;;;4.25;1.15;;;21.70;99.90;;;;;;4971364;28;20315;-65
2023/07/31 12:01:28;;;;;;;1.77;1.00;;;21.80;99.90;;;;;;4975584;28;20207;-66
2023/07/31 12:03:54;;;;;;;2.13;1.10;;;21.90;99.90;;;;;;4975556;28;20191;-65
2023/07/31 12:06:20;;;;;;;2.25;1.00;;;22.00;99.90;;;;;;4975491;28;20295;-65
2023/07/31 12:08:49;;;;;;;2.00;1.10;;;22.10;99.90;;;;;;4975540;28;20203;-64
2023/07/31 12:11:14;;;;;;;1.20;0.90;;;22.30;99.90;;;;;;4975321;28;20576;-66
2023/07/31 12:13:40;;;;;;;1.75;1.08;;;22.50;99.90;;;;;;4975500;28;20207;-65
2023/07/31 12:16:09;;;;;;;1.77;1.20;;;22.70;99.90;;;;;;4986250;28;20203;-65
2023/07/31 12:18:37;;;;;;;2.03;1.40;;;22.80;99.90;;;;;;4994564;28;20179;-64
2023/07/31 12:21:05;;;;;;;1.52;1.33;;;23.00;99.90;;;;;;4994472;28;20199;-65
2023/07/31 12:23:36;;;;;;;2.53;1.30;;;23.20;99.90;;;;;;4994847;28;20175;-65
2023/07/31 12:26:06;;;;;;;2.60;2.03;;;23.40;99.90;;;;;;4994913;28;20203;-65
2023/07/31 12:28:41;;;;;;;3.10;2.13;;;23.50;99.90;;;;;;4994558;28;20203;-65
2023/07/31 12:31:09;;;;;;;2.50;1.77;;;23.60;99.90;;;;;;4983337;28;20194;-65
2023/07/31 12:33:37;;;;;;;2.10;1.90;;;23.60;99.90;;;;;;4975512;28;20238;-65
2023/07/31 12:36:08;;;;;;;3.20;2.00;;;23.70;99.90;;;;;;4976229;28;20168;-65
2023/07/31 12:38:37;;;;;;;2.28;1.90;;;23.80;99.90;;;;;;4975126;28;20184;-65
2023/07/31 12:41:02;;;;;;;2.83;2.25;;;23.80;99.90;;;;;;4975500;28;20184;-66
2023/07/31 12:43:30;;;;;;;4.05;2.92;;;23.90;99.90;;;;;;4975334;28;20191;-66
2023/07/31 12:45:56;;;;;;;4.65;2.90;;;23.90;99.90;;;;;;4975517;28;20245;-65
2023/07/31 12:48:22;;;;;;;4.15;2.35;;;23.90;99.90;;;;;;4974581;28;20211;-65
2023/07/31 12:50:47;;;;;;;2.95;2.20;;;23.90;99.90;;;;;;4976037;28;20176;-65